Time;durP1;ratioP1;P1;durP2;ratioP2;P2;SDS_P1;SDS_P2;PMS_P1;PMS_P2;Temp;Humidity;BMP_temperature;BMP_pressure;BME280_temperature;BME280_humidity;BME280_pressure;Samples;Min_cycle;Max_cycle;Signal;HPM_P1;HPM_P2
2023/01/20 00:01:15;;;;;;;7.85;4.50;;;1.10;99.90;;;;;;5053640;28;20123;-54
2023/01/20 00:03:44;;;;;;;10.95;4.60;;;1.10;99.90;;;;;;5053641;28;20037;-51
2023/01/20 00:06:11;;;;;;;10.93;4.07;;;1.10;99.90;;;;;;5052783;28;20099;-51
2023/01/20 00:08:38;;;;;;;9.98;4.38;;;1.10;99.90;;;;;;5052044;28;20449;-50
2023/01/20 00:11:04;;;;;;;10.73;4.18;;;1.10;99.90;;;;;;5051577;28;20045;-51
2023/01/20 00:13:31;;;;;;;9.02;4.10;;;1.10;99.90;;;;;;5046499;28;20053;-53
2023/01/20 00:15:58;;;;;;;8.90;4.00;;;1.20;99.90;;;;;;5072593;28;20044;-54
2023/01/20 00:18:24;;;;;;;8.63;4.28;;;1.10;99.90;;;;;;5044238;28;20048;-51
2023/01/20 00:20:51;;;;;;;6.97;4.50;;;1.10;99.90;;;;;;5053512;28;20041;-52
2023/01/20 00:23:18;;;;;;;10.23;4.43;;;1.10;99.90;;;;;;5059022;28;20559;-54
2023/01/20 00:25:45;;;;;;;10.35;4.70;;;1.10;99.90;;;;;;5071262;28;20043;-53
2023/01/20 00:28:11;;;;;;;10.40;4.03;;;1.10;99.90;;;;;;5072446;28;20438;-52
2023/01/20 00:30:38;;;;;;;10.45;5.05;;;1.00;99.90;;;;;;5063641;28;20442;-53
2023/01/20 00:33:05;;;;;;;12.88;4.97;;;1.00;99.90;;;;;;5051496;28;20037;-52
2023/01/20 00:35:32;;;;;;;10.82;4.68;;;0.90;99.90;;;;;;5053316;28;20053;-54
2023/01/20 00:37:58;;;;;;;8.35;4.70;;;0.90;99.90;;;;;;5052301;28;20041;-47
2023/01/20 00:40:25;;;;;;;9.82;4.53;;;0.90;99.90;;;;;;5052959;28;20049;-48
2023/01/20 00:42:52;;;;;;;12.68;4.28;;;0.80;99.90;;;;;;5051907;28;20095;-50
2023/01/20 00:45:18;;;;;;;7.35;3.75;;;0.80;99.90;;;;;;5052479;28;20045;-50
2023/01/20 00:47:45;;;;;;;8.13;4.07;;;0.80;99.90;;;;;;5053966;28;20041;-50
2023/01/20 00:50:12;;;;;;;8.50;3.83;;;0.80;99.90;;;;;;5054424;28;20049;-51
2023/01/20 00:52:39;;;;;;;9.20;4.13;;;0.80;99.90;;;;;;5056792;28;20045;-52
2023/01/20 00:55:05;;;;;;;7.22;3.78;;;0.70;99.90;;;;;;5060362;28;20098;-52
2023/01/20 00:57:32;;;;;;;7.97;4.03;;;0.70;99.90;;;;;;5057527;28;20041;-51
2023/01/20 00:59:59;;;;;;;11.18;4.20;;;0.70;99.90;;;;;;5056810;28;20041;-54
2023/01/20 01:02:25;;;;;;;5.72;3.30;;;0.70;99.90;;;;;;5055547;28;20044;-53
2023/01/20 01:04:52;;;;;;;12.73;4.10;;;0.70;99.90;;;;;;5056454;28;20047;-48
2023/01/20 01:07:19;;;;;;;10.23;3.83;;;0.70;99.90;;;;;;5056499;28;20148;-52
2023/01/20 01:09:46;;;;;;;8.77;3.58;;;0.70;99.90;;;;;;5055588;28;20453;-48
2023/01/20 01:12:12;;;;;;;9.80;3.90;;;0.70;99.90;;;;;;5056227;28;20049;-52
2023/01/20 01:14:39;;;;;;;8.70;4.45;;;0.70;99.90;;;;;;5055628;28;20049;-49
2023/01/20 01:17:06;;;;;;;6.63;3.70;;;0.70;99.90;;;;;;5055966;28;20036;-51
2023/01/20 01:19:33;;;;;;;7.68;3.83;;;0.70;99.90;;;;;;5055726;28;20037;-49
2023/01/20 01:21:59;;;;;;;7.25;3.60;;;0.70;99.90;;;;;;5056037;28;20072;-47
2023/01/20 01:24:26;;;;;;;7.75;3.50;;;0.80;99.90;;;;;;5056130;28;20071;-53
2023/01/20 01:26:53;;;;;;;7.63;3.47;;;0.80;99.90;;;;;;5056095;28;20141;-46
2023/01/20 01:29:20;;;;;;;8.50;4.07;;;0.80;99.90;;;;;;5055259;28;20037;-49
2023/01/20 01:31:46;;;;;;;6.05;3.10;;;0.80;99.90;;;;;;5055990;28;20484;-54
2023/01/20 01:34:14;;;;;;;9.80;3.67;;;0.80;99.90;;;;;;5055074;28;20067;-52
2023/01/20 01:36:41;;;;;;;8.50;3.28;;;0.80;99.90;;;;;;5054319;28;20384;-52
2023/01/20 01:39:07;;;;;;;9.65;3.60;;;0.90;99.90;;;;;;5055707;28;20040;-49
2023/01/20 01:41:34;;;;;;;18.67;4.07;;;0.90;99.90;;;;;;5055677;28;20366;-50
2023/01/20 01:44:01;;;;;;;5.53;3.03;;;1.00;99.90;;;;;;5055157;28;20037;-48
2023/01/20 01:46:27;;;;;;;9.60;3.40;;;1.00;99.90;;;;;;5055607;28;20040;-50
2023/01/20 01:48:54;;;;;;;6.68;3.38;;;1.10;99.90;;;;;;5055999;28;20047;-49
2023/01/20 01:51:21;;;;;;;5.65;2.83;;;1.10;99.90;;;;;;5055452;28;20484;-53
2023/01/20 01:53:48;;;;;;;7.75;3.05;;;1.20;99.90;;;;;;5055516;28;20045;-48
2023/01/20 01:56:14;;;;;;;7.72;3.17;;;1.20;99.90;;;;;;5055355;28;20455;-53
2023/01/20 01:58:41;;;;;;;8.98;3.22;;;1.20;99.90;;;;;;5055032;28;20475;-50
2023/01/20 02:01:08;;;;;;;7.93;3.20;;;1.30;99.90;;;;;;5055066;28;20041;-51
2023/01/20 02:03:35;;;;;;;5.55;2.95;;;1.30;99.90;;;;;;5055359;28;20116;-46
2023/01/20 02:06:02;;;;;;;6.20;3.00;;;1.30;99.90;;;;;;5055283;28;20041;-50
2023/01/20 02:08:29;;;;;;;7.35;3.28;;;1.30;99.90;;;;;;5055289;28;20053;-51
2023/01/20 02:10:56;;;;;;;9.50;2.90;;;1.30;99.90;;;;;;5055130;28;20492;-51
2023/01/20 02:13:22;;;;;;;7.68;2.40;;;1.30;99.90;;;;;;5054969;28;20053;-49
2023/01/20 02:15:49;;;;;;;5.25;2.53;;;1.30;99.90;;;;;;5055268;28;20484;-52
2023/01/20 02:18:16;;;;;;;7.18;2.80;;;1.30;99.90;;;;;;5048395;28;20040;-51
2023/01/20 02:20:43;;;;;;;8.02;3.05;;;1.30;99.90;;;;;;5048675;28;20045;-50
2023/01/20 02:23:09;;;;;;;7.30;2.70;;;1.30;99.90;;;;;;5048200;28;20503;-49
2023/01/20 02:25:36;;;;;;;6.93;2.75;;;1.30;99.90;;;;;;5089793;28;20076;-52
2023/01/20 02:28:03;;;;;;;10.02;2.65;;;1.20;99.90;;;;;;5074681;28;20048;-52
2023/01/20 02:30:29;;;;;;;8.55;2.72;;;1.20;99.90;;;;;;5072907;28;20063;-51
2023/01/20 02:32:56;;;;;;;8.88;2.92;;;1.10;99.90;;;;;;5054803;28;20075;-50
2023/01/20 02:35:23;;;;;;;5.32;2.58;;;1.10;99.90;;;;;;5054907;28;20072;-54
2023/01/20 02:37:49;;;;;;;6.40;2.60;;;1.00;99.90;;;;;;5054819;28;20480;-49
2023/01/20 02:40:16;;;;;;;7.10;2.70;;;1.00;99.90;;;;;;5053852;28;20040;-50
2023/01/20 02:42:43;;;;;;;6.07;2.40;;;1.00;99.90;;;;;;5054813;28;20045;-50
2023/01/20 02:45:10;;;;;;;5.80;2.35;;;0.90;99.90;;;;;;5053396;28;20530;-52
2023/01/20 02:47:36;;;;;;;7.75;2.33;;;0.90;99.90;;;;;;5054401;28;20097;-51
2023/01/20 02:50:03;;;;;;;6.72;2.60;;;0.90;99.90;;;;;;5054495;28;20040;-49
2023/01/20 02:52:30;;;;;;;6.72;2.30;;;0.80;99.90;;;;;;5054193;28;20040;-55
2023/01/20 02:54:57;;;;;;;6.50;2.42;;;0.80;99.90;;;;;;5054507;28;20064;-48
2023/01/20 02:57:24;;;;;;;8.63;2.50;;;0.80;99.90;;;;;;5054202;28;20128;-47
2023/01/20 02:59:50;;;;;;;9.30;2.70;;;0.80;99.90;;;;;;5059564;28;20032;-47
2023/01/20 03:02:17;;;;;;;5.20;2.28;;;0.80;99.90;;;;;;5055353;28;20499;-49
2023/01/20 03:04:44;;;;;;;6.00;2.38;;;0.70;99.90;;;;;;5054108;28;20072;-48
2023/01/20 03:07:10;;;;;;;5.65;2.22;;;0.70;99.90;;;;;;5054314;28;20072;-49
2023/01/20 03:09:37;;;;;;;7.35;2.33;;;0.70;99.90;;;;;;5054040;28;20062;-47
2023/01/20 03:12:04;;;;;;;7.07;2.30;;;0.70;99.90;;;;;;5065904;28;20044;-51
2023/01/20 03:14:30;;;;;;;7.93;2.67;;;0.70;99.90;;;;;;5073096;28;20052;-49
2023/01/20 03:16:57;;;;;;;8.07;2.00;;;0.70;99.90;;;;;;5071977;28;20036;-50
2023/01/20 03:19:24;;;;;;;6.88;2.42;;;0.70;99.90;;;;;;5071987;28;20545;-53
2023/01/20 03:21:51;;;;;;;9.48;2.20;;;0.70;99.90;;;;;;5072852;28;20052;-49
2023/01/20 03:24:17;;;;;;;5.38;1.90;;;0.70;99.90;;;;;;5071967;28;20098;-50
2023/01/20 03:26:44;;;;;;;6.75;2.35;;;0.80;99.90;;;;;;5051599;28;20041;-49
2023/01/20 03:29:11;;;;;;;7.55;2.15;;;0.80;99.90;;;;;;5053740;28;20507;-51
2023/01/20 03:31:38;;;;;;;6.88;2.05;;;0.80;99.90;;;;;;5053973;28;20047;-50
2023/01/20 03:34:05;;;;;;;7.60;2.10;;;0.80;99.90;;;;;;5053740;28;20127;-49
2023/01/20 03:36:31;;;;;;;8.27;2.00;;;0.80;99.90;;;;;;5053534;28;20079;-48
2023/01/20 03:38:58;;;;;;;5.15;1.88;;;0.80;99.90;;;;;;5053840;28;20045;-52
2023/01/20 03:41:25;;;;;;;6.82;1.98;;;0.80;99.90;;;;;;5053728;28;20056;-49
2023/01/20 03:43:52;;;;;;;6.15;2.10;;;0.70;99.90;;;;;;5053649;28;20048;-51
2023/01/20 03:46:18;;;;;;;8.20;2.13;;;0.70;99.90;;;;;;5053494;28;20041;-51
2023/01/20 03:48:45;;;;;;;3.92;1.70;;;0.70;99.90;;;;;;5053423;28;20116;-48
2023/01/20 03:51:12;;;;;;;6.18;2.15;;;0.70;99.90;;;;;;5070110;28;20091;-49
2023/01/20 03:53:44;;;;;;;9.40;2.03;;;0.80;99.90;;;;;;5072653;28;20048;-47
2023/01/20 03:56:10;;;;;;;5.75;1.90;;;0.70;99.90;;;;;;5057735;28;20037;-50
2023/01/20 03:58:37;;;;;;;6.63;2.10;;;0.70;99.90;;;;;;5053507;28;20132;-54
2023/01/20 04:01:04;;;;;;;6.75;1.70;;;0.70;99.90;;;;;;5053399;28;20447;-55
2023/01/20 04:03:44;;;;;;;6.82;1.88;;;0.70;99.90;;;;;;5053597;28;20041;-49
2023/01/20 04:06:11;;;;;;;6.45;1.83;;;0.70;99.90;;;;;;5053550;28;20041;-49
2023/01/20 04:08:38;;;;;;;5.95;1.88;;;0.70;99.90;;;;;;5053461;28;20045;-52
2023/01/20 04:11:04;;;;;;;5.63;2.00;;;0.70;99.90;;;;;;5053492;28;20047;-50
2023/01/20 04:13:31;;;;;;;8.05;1.80;;;0.70;99.90;;;;;;5051758;28;20057;-53
2023/01/20 04:15:58;;;;;;;9.65;1.90;;;0.70;99.90;;;;;;5053351;28;20098;-48
2023/01/20 04:18:24;;;;;;;9.00;1.75;;;0.70;99.90;;;;;;5053035;28;20044;-55
2023/01/20 04:20:51;;;;;;;5.80;1.50;;;0.70;99.90;;;;;;5053469;28;20029;-51
2023/01/20 04:23:18;;;;;;;8.10;1.70;;;0.70;99.90;;;;;;5055376;28;20039;-50
2023/01/20 04:25:45;;;;;;;3.75;1.67;;;0.70;99.90;;;;;;5056676;28;20507;-49
2023/01/20 04:28:11;;;;;;;8.98;1.90;;;0.70;99.90;;;;;;5056902;28;20045;-51
2023/01/20 04:30:38;;;;;;;6.72;1.73;;;0.70;99.90;;;;;;5057118;28;20049;-50
2023/01/20 04:33:05;;;;;;;6.85;1.90;;;0.70;99.90;;;;;;5057000;28;20048;-49
2023/01/20 04:35:32;;;;;;;7.35;2.35;;;0.70;99.90;;;;;;5055763;28;20443;-48
2023/01/20 04:37:58;;;;;;;5.47;1.58;;;0.70;99.90;;;;;;5056672;28;20041;-49
2023/01/20 04:40:25;;;;;;;8.25;1.88;;;0.70;99.90;;;;;;5056885;28;20592;-51
2023/01/20 04:42:52;;;;;;;5.90;1.50;;;0.70;99.90;;;;;;5055345;28;20507;-52
2023/01/20 04:45:18;;;;;;;6.28;1.70;;;0.70;99.90;;;;;;5056705;28;20045;-48
2023/01/20 04:47:45;;;;;;;4.53;1.35;;;0.70;99.90;;;;;;5056910;28;20041;-51
2023/01/20 04:50:12;;;;;;;7.07;2.00;;;0.70;99.90;;;;;;5056516;28;20043;-48
2023/01/20 04:52:39;;;;;;;5.53;1.60;;;0.70;99.90;;;;;;5056625;28;20087;-52
2023/01/20 04:55:06;;;;;;;4.97;1.70;;;0.60;99.90;;;;;;5056387;28;20103;-51
2023/01/20 04:57:33;;;;;;;5.60;1.50;;;0.70;99.90;;;;;;5056332;28;20041;-49
2023/01/20 04:59:59;;;;;;;9.93;1.75;;;0.60;99.90;;;;;;5060119;28;20059;-49
2023/01/20 05:02:26;;;;;;;9.88;2.00;;;0.60;99.90;;;;;;5075562;28;20496;-48
2023/01/20 05:04:53;;;;;;;4.32;1.70;;;0.60;99.90;;;;;;5075630;28;20048;-48
2023/01/20 05:07:20;;;;;;;5.65;1.83;;;0.60;99.90;;;;;;5075329;28;20049;-52
2023/01/20 05:09:46;;;;;;;5.25;1.52;;;0.60;99.90;;;;;;5075475;28;20040;-49
2023/01/20 05:12:13;;;;;;;4.95;1.77;;;0.60;99.90;;;;;;5075316;28;20064;-50
2023/01/20 05:14:40;;;;;;;6.30;1.63;;;0.60;99.90;;;;;;5075223;28;20053;-48
2023/01/20 05:17:06;;;;;;;4.60;1.60;;;0.60;99.90;;;;;;5073853;28;20102;-50
2023/01/20 05:19:33;;;;;;;6.38;1.38;;;0.60;99.90;;;;;;5075171;28;20037;-50
2023/01/20 05:22:00;;;;;;;6.03;1.92;;;0.50;99.90;;;;;;5075204;28;20051;-48
2023/01/20 05:24:27;;;;;;;5.07;1.90;;;0.50;99.90;;;;;;5068971;28;20499;-52
2023/01/20 05:26:53;;;;;;;6.78;1.92;;;0.50;99.90;;;;;;5055895;28;20045;-47
2023/01/20 05:29:20;;;;;;;5.13;1.40;;;0.50;99.90;;;;;;5055738;28;20057;-49
2023/01/20 05:31:47;;;;;;;7.63;1.60;;;0.50;99.90;;;;;;5055734;28;20429;-48
2023/01/20 05:34:15;;;;;;;6.68;1.58;;;0.50;99.90;;;;;;5054620;28;20049;-52
2023/01/20 05:36:41;;;;;;;7.05;1.58;;;0.50;99.90;;;;;;5055985;28;20119;-56
2023/01/20 05:39:08;;;;;;;7.50;1.73;;;0.50;99.90;;;;;;5055598;28;20037;-54
2023/01/20 05:41:35;;;;;;;9.43;1.63;;;0.50;99.90;;;;;;5055619;28;20072;-53
2023/01/20 05:44:02;;;;;;;7.80;1.60;;;0.50;99.90;;;;;;5055562;28;20037;-49
2023/01/20 05:46:28;;;;;;;6.35;1.50;;;0.50;99.90;;;;;;5055597;28;20492;-52
2023/01/20 05:48:55;;;;;;;8.60;1.70;;;0.50;99.90;;;;;;5055706;28;20040;-52
2023/01/20 05:51:22;;;;;;;9.10;2.15;;;0.50;99.90;;;;;;5055495;28;20044;-52
2023/01/20 05:53:49;;;;;;;9.70;1.98;;;0.50;99.90;;;;;;5055589;28;20488;-48
2023/01/20 05:56:15;;;;;;;5.28;1.77;;;0.50;99.90;;;;;;5051396;28;20045;-50
2023/01/20 05:58:42;;;;;;;11.00;2.25;;;0.50;99.90;;;;;;5056591;28;20040;-54
2023/01/20 06:01:09;;;;;;;5.82;1.58;;;0.50;99.90;;;;;;5065818;28;20052;-49
2023/01/20 06:03:36;;;;;;;4.85;1.30;;;0.50;99.90;;;;;;5055583;28;20128;-54
2023/01/20 06:06:03;;;;;;;6.15;1.83;;;0.50;99.90;;;;;;5055160;28;20131;-51
2023/01/20 06:08:30;;;;;;;7.32;1.67;;;0.50;99.90;;;;;;5054027;28;20045;-53
2023/01/20 06:10:56;;;;;;;4.68;1.48;;;0.40;99.90;;;;;;5055119;28;20041;-49
2023/01/20 06:13:23;;;;;;;5.85;1.58;;;0.40;99.90;;;;;;5054923;28;20126;-49
2023/01/20 06:15:50;;;;;;;5.57;1.65;;;0.40;99.90;;;;;;5055336;28;20538;-51
2023/01/20 06:18:17;;;;;;;9.18;1.70;;;0.40;99.90;;;;;;5055048;28;20037;-54
2023/01/20 06:20:43;;;;;;;8.43;1.88;;;0.40;99.90;;;;;;5055433;28;20464;-52
2023/01/20 06:23:10;;;;;;;7.25;1.80;;;0.40;99.90;;;;;;5054887;28;20041;-48
2023/01/20 06:25:37;;;;;;;7.20;1.67;;;0.40;99.90;;;;;;5056300;28;20183;-55
2023/01/20 06:28:04;;;;;;;8.02;1.60;;;0.40;99.90;;;;;;5054848;28;20128;-51
2023/01/20 06:30:30;;;;;;;10.98;1.65;;;0.40;99.90;;;;;;5055046;28;20480;-50
2023/01/20 06:32:58;;;;;;;7.90;1.70;;;0.30;99.90;;;;;;5054674;28;20037;-51
2023/01/20 06:35:25;;;;;;;8.15;1.50;;;0.30;99.90;;;;;;5054828;28;20546;-53
2023/01/20 06:37:51;;;;;;;4.80;1.60;;;0.30;99.90;;;;;;5054355;28;20127;-49
2023/01/20 06:40:18;;;;;;;7.35;1.52;;;0.30;99.90;;;;;;5054543;28;20124;-52
2023/01/20 06:42:45;;;;;;;4.68;1.77;;;0.30;99.90;;;;;;5054437;28;20044;-51
2023/01/20 06:45:12;;;;;;;7.18;1.58;;;0.30;99.90;;;;;;5054115;28;20045;-56
2023/01/20 06:47:39;;;;;;;7.45;1.90;;;0.30;99.90;;;;;;5054236;28;20037;-54
2023/01/20 06:50:06;;;;;;;7.30;1.95;;;0.30;99.90;;;;;;5054351;28;20048;-48
2023/01/20 06:52:32;;;;;;;7.63;1.80;;;0.30;99.90;;;;;;5054266;28;20465;-52
2023/01/20 06:54:59;;;;;;;9.15;1.95;;;0.30;99.90;;;;;;5061074;28;20071;-56
2023/01/20 06:57:26;;;;;;;8.18;1.80;;;0.30;99.90;;;;;;5054394;28;20045;-52
2023/01/20 06:59:53;;;;;;;5.65;1.73;;;0.30;99.90;;;;;;5054207;28;20098;-51
2023/01/20 07:02:19;;;;;;;5.88;1.83;;;0.30;99.90;;;;;;5054328;28;20036;-49
2023/01/20 07:04:46;;;;;;;9.73;2.03;;;0.30;99.90;;;;;;5054044;28;20040;-54
2023/01/20 07:07:13;;;;;;;5.60;1.75;;;0.30;99.90;;;;;;5054172;28;20076;-51
2023/01/20 07:09:40;;;;;;;9.95;2.00;;;0.30;99.90;;;;;;5054163;28;20049;-52
2023/01/20 07:12:06;;;;;;;7.60;1.85;;;0.30;99.90;;;;;;5054136;28;20045;-52
2023/01/20 07:14:33;;;;;;;8.52;1.77;;;0.30;99.90;;;;;;5053863;28;20057;-49
2023/01/20 07:17:00;;;;;;;5.72;1.77;;;0.30;99.90;;;;;;5053486;28;20052;-51
2023/01/20 07:19:26;;;;;;;10.25;1.85;;;0.30;99.90;;;;;;5060387;28;20476;-51
2023/01/20 07:21:53;;;;;;;7.88;1.98;;;0.30;99.90;;;;;;5073090;28;20041;-51
2023/01/20 07:24:20;;;;;;;5.53;1.85;;;0.30;99.90;;;;;;5046830;28;20099;-53
2023/01/20 07:26:47;;;;;;;6.97;1.90;;;0.30;99.90;;;;;;5047289;28;20094;-52
2023/01/20 07:29:13;;;;;;;8.88;1.92;;;0.30;99.90;;;;;;5047081;28;20044;-54
2023/01/20 07:31:44;;;;;;;11.25;2.17;;;0.30;99.90;;;;;;5047387;28;20049;-53
2023/01/20 07:34:11;;;;;;;7.43;1.83;;;0.30;99.90;;;;;;5053536;28;20129;-53
2023/01/20 07:36:38;;;;;;;9.10;1.85;;;0.30;99.90;;;;;;5053482;28;20053;-52
2023/01/20 07:39:04;;;;;;;6.70;1.80;;;0.30;99.90;;;;;;5053486;28;20036;-53
2023/01/20 07:41:31;;;;;;;9.52;2.20;;;0.30;99.90;;;;;;5046977;28;20041;-52
2023/01/20 07:43:58;;;;;;;8.73;1.80;;;0.30;99.90;;;;;;5046991;28;20086;-54
2023/01/20 07:46:25;;;;;;;7.95;1.90;;;0.30;99.90;;;;;;5046862;28;20056;-52
2023/01/20 07:48:52;;;;;;;7.68;1.88;;;0.30;99.90;;;;;;5046942;28;20049;-53
2023/01/20 07:51:18;;;;;;;10.50;1.92;;;0.30;99.90;;;;;;5046867;28;20045;-53
2023/01/20 07:53:45;;;;;;;9.73;2.65;;;0.30;99.90;;;;;;5053149;28;20049;-58
2023/01/20 07:56:12;;;;;;;6.32;2.17;;;0.30;99.90;;;;;;5053336;28;20037;-52
2023/01/20 07:58:39;;;;;;;9.30;2.00;;;0.40;99.90;;;;;;5056398;28;20098;-52
2023/01/20 08:01:06;;;;;;;8.18;2.40;;;0.40;99.90;;;;;;5057668;28;20393;-55
2023/01/20 08:03:33;;;;;;;7.90;2.45;;;0.40;99.90;;;;;;5057315;28;20499;-51
2023/01/20 08:06:00;;;;;;;6.40;2.28;;;0.40;99.90;;;;;;5057330;28;20037;-49
2023/01/20 08:08:27;;;;;;;16.70;2.85;;;0.40;99.90;;;;;;5056317;28;20033;-52
2023/01/20 08:10:53;;;;;;;7.28;2.38;;;0.40;99.90;;;;;;5059248;28;20067;-51
2023/01/20 08:13:20;;;;;;;9.48;2.90;;;0.40;99.90;;;;;;5057053;28;20523;-48
2023/01/20 08:15:47;;;;;;;6.00;2.30;;;0.40;99.90;;;;;;5057000;28;20079;-49
2023/01/20 08:18:14;;;;;;;29.20;17.17;;;0.40;99.90;;;;;;5057011;28;20488;-50
2023/01/20 08:20:40;;;;;;;11.85;3.22;;;0.50;99.90;;;;;;5056905;28;20045;-49
2023/01/20 08:23:07;;;;;;;8.80;2.67;;;0.50;99.90;;;;;;5056968;28;20082;-52
2023/01/20 08:25:34;;;;;;;8.88;2.67;;;0.60;99.90;;;;;;5056265;28;20048;-52
2023/01/20 08:28:01;;;;;;;9.75;2.40;;;0.60;99.90;;;;;;5056921;28;20040;-51
2023/01/20 08:30:30;;;;;;;7.75;2.47;;;0.60;99.90;;;;;;5056815;28;20045;-53
2023/01/20 08:32:57;;;;;;;8.30;2.38;;;0.60;99.90;;;;;;5055635;28;20416;-49
2023/01/20 08:35:25;;;;;;;7.13;2.38;;;0.60;99.90;;;;;;5056843;28;20045;-52
2023/01/20 08:37:52;;;;;;;9.73;2.58;;;0.60;99.90;;;;;;5056666;28;20110;-48
2023/01/20 08:40:18;;;;;;;7.20;2.28;;;0.60;99.90;;;;;;5056562;28;20041;-50
2023/01/20 08:42:45;;;;;;;10.13;2.72;;;0.60;99.90;;;;;;5056714;28;20052;-48
2023/01/20 08:45:12;;;;;;;12.73;2.50;;;0.60;99.90;;;;;;5056519;28;20037;-51
2023/01/20 08:47:43;;;;;;;9.93;2.70;;;0.60;99.90;;;;;;5061003;28;20039;-52
2023/01/20 08:50:09;;;;;;;8.48;2.45;;;0.60;99.90;;;;;;5055510;28;20044;-50
2023/01/20 08:52:36;;;;;;;10.73;2.63;;;0.70;99.90;;;;;;5053002;28;20442;-53
2023/01/20 08:55:03;;;;;;;10.30;2.78;;;0.70;99.90;;;;;;5055971;28;20048;-50
2023/01/20 08:57:30;;;;;;;10.05;2.38;;;0.70;99.90;;;;;;5054822;28;20037;-53
2023/01/20 08:59:56;;;;;;;8.98;2.60;;;0.70;99.90;;;;;;5067677;28;20440;-49
2023/01/20 09:02:23;;;;;;;11.88;2.72;;;0.80;99.90;;;;;;5074955;28;20036;-51
2023/01/20 09:04:50;;;;;;;12.15;2.90;;;0.80;99.90;;;;;;5075248;28;20494;-51
2023/01/20 09:07:17;;;;;;;11.18;2.97;;;0.80;99.90;;;;;;5073816;28;20434;-51
2023/01/20 09:09:44;;;;;;;9.40;2.70;;;0.90;99.90;;;;;;5074989;28;20048;-51
2023/01/20 09:12:11;;;;;;;7.85;2.60;;;0.90;99.90;;;;;;5074960;28;20048;-53
2023/01/20 09:14:38;;;;;;;11.40;2.90;;;0.90;99.90;;;;;;5074889;28;20124;-52
2023/01/20 09:17:05;;;;;;;17.67;7.10;;;1.00;99.90;;;;;;5074805;28;20040;-52
2023/01/20 09:19:31;;;;;;;9.77;2.83;;;1.00;99.90;;;;;;5075082;28;20124;-48
2023/01/20 09:21:58;;;;;;;13.52;4.38;;;1.10;99.90;;;;;;5074936;28;20066;-54
2023/01/20 09:24:25;;;;;;;14.52;2.65;;;1.10;99.90;;;;;;5062395;28;20044;-53
2023/01/20 09:26:52;;;;;;;7.38;2.58;;;1.20;99.90;;;;;;5054175;28;20037;-51
2023/01/20 09:29:18;;;;;;;13.00;2.85;;;1.20;99.90;;;;;;5055564;28;20060;-51
2023/01/20 09:31:45;;;;;;;11.13;2.83;;;1.20;99.90;;;;;;5055580;28;20065;-58
2023/01/20 09:34:17;;;;;;;9.75;2.53;;;1.30;99.90;;;;;;5054305;28;20045;-54
2023/01/20 09:36:45;;;;;;;9.80;2.70;;;1.30;99.90;;;;;;5055369;28;20492;-49
2023/01/20 09:44:42;;;;;;;9.32;3.08;;;1.50;99.90;;;;;;5056117;28;20420;-52
2023/01/20 09:47:18;;;;;;;11.57;3.28;;;1.50;99.90;;;;;;5055683;28;20049;-49
2023/01/20 09:55:15;;;;;;;9.95;3.53;;;1.70;99.90;;;;;;5053069;28;20043;-52
2023/01/20 09:57:42;;;;;;;8.95;3.70;;;1.80;99.90;;;;;;5063617;28;20128;-52
2023/01/20 10:00:09;;;;;;;12.82;3.35;;;1.80;99.90;;;;;;5074220;28;20043;-50
2023/01/20 10:02:36;;;;;;;11.32;3.45;;;1.90;99.90;;;;;;5074209;28;20094;-49
2023/01/20 10:05:02;;;;;;;10.85;3.10;;;2.00;99.90;;;;;;5074379;28;20434;-51
2023/01/20 10:07:29;;;;;;;10.05;2.80;;;2.00;99.90;;;;;;5074133;28;20044;-51
2023/01/20 10:09:56;;;;;;;11.10;3.08;;;2.10;99.90;;;;;;5073985;28;20110;-49
2023/01/20 10:12:23;;;;;;;47.65;16.30;;;2.10;99.90;;;;;;5073344;28;20045;-49
2023/01/20 10:14:49;;;;;;;17.27;6.05;;;2.20;99.90;;;;;;5073854;28;20044;-46
2023/01/20 10:17:16;;;;;;;11.98;5.32;;;2.30;99.90;;;;;;5070912;28;20055;-48
2023/01/20 10:19:43;;;;;;;15.65;8.45;;;2.30;99.90;;;;;;5073261;28;20377;-48
2023/01/20 10:22:10;;;;;;;14.20;5.53;;;2.40;99.90;;;;;;5073340;28;20385;-47
2023/01/20 10:24:36;;;;;;;12.95;3.65;;;2.40;99.90;;;;;;5058926;28;20361;-47
2023/01/20 10:27:03;;;;;;;15.23;5.68;;;2.50;99.90;;;;;;5053592;28;20041;-49
2023/01/20 10:29:30;;;;;;;13.55;3.67;;;2.50;99.90;;;;;;5054414;28;20052;-49
2023/01/20 10:31:57;;;;;;;9.65;3.15;;;2.60;99.90;;;;;;5054965;28;20107;-49
2023/01/20 10:34:24;;;;;;;12.70;6.53;;;2.60;99.90;;;;;;5069948;28;20090;-48
2023/01/20 10:36:51;;;;;;;11.65;3.45;;;2.70;99.90;;;;;;5049265;28;20132;-47
2023/01/20 10:39:17;;;;;;;8.93;3.25;;;2.70;99.90;;;;;;5054263;28;20044;-49
2023/01/20 10:41:44;;;;;;;10.88;3.90;;;2.70;99.90;;;;;;5054605;28;20041;-53
2023/01/20 10:44:11;;;;;;;10.57;4.68;;;2.80;99.90;;;;;;5059113;28;20029;-56
2023/01/20 10:46:38;;;;;;;11.02;5.22;;;2.80;99.90;;;;;;5054163;28;20484;-53
2023/01/20 10:49:04;;;;;;;12.43;5.65;;;2.90;99.90;;;;;;5054167;28;20036;-53
2023/01/20 10:51:31;;;;;;;12.00;4.80;;;2.90;99.90;;;;;;5053871;28;20072;-51
2023/01/20 10:53:58;;;;;;;13.07;6.03;;;3.00;99.90;;;;;;5053835;28;20068;-55
2023/01/20 10:56:25;;;;;;;17.88;5.28;;;3.10;99.90;;;;;;5053625;28;20147;-54
2023/01/20 10:58:52;;;;;;;19.25;10.35;;;3.20;99.90;;;;;;5051081;28;20098;-50
2023/01/20 11:01:18;;;;;;;15.02;7.75;;;3.30;99.90;;;;;;5054035;28;20511;-51
2023/01/20 11:03:45;;;;;;;25.02;10.77;;;3.30;99.90;;;;;;5053895;28;20033;-53
2023/01/20 11:06:12;;;;;;;14.07;5.45;;;3.40;99.90;;;;;;5053924;28;20043;-51
2023/01/20 11:08:39;;;;;;;14.10;7.38;;;3.40;99.90;;;;;;5063233;28;20110;-55
2023/01/20 11:11:05;;;;;;;19.85;7.45;;;3.50;99.90;;;;;;5052032;28;20045;-53
2023/01/20 11:13:32;;;;;;;11.30;4.03;;;3.50;99.90;;;;;;5053543;28;20126;-51
2023/01/20 11:15:59;;;;;;;24.17;9.20;;;3.50;99.90;;;;;;5053564;28;20041;-55
2023/01/20 11:18:26;;;;;;;37.97;14.95;;;3.60;99.90;;;;;;5052392;28;20404;-50
2023/01/20 11:20:53;;;;;;;18.33;7.30;;;3.60;99.90;;;;;;5053651;28;20068;-50
2023/01/20 11:23:20;;;;;;;14.13;5.07;;;3.60;99.90;;;;;;5053824;28;20045;-50
2023/01/20 11:25:47;;;;;;;10.38;4.60;;;3.70;99.90;;;;;;5052804;28;20514;-51
2023/01/20 11:28:13;;;;;;;14.15;6.72;;;3.70;99.90;;;;;;5052684;28;20408;-55
2023/01/20 11:30:40;;;;;;;26.08;16.83;;;3.80;99.90;;;;;;5045845;28;20043;-54
2023/01/20 11:33:07;;;;;;;12.65;5.97;;;3.80;99.90;;;;;;5045560;28;20037;-50
2023/01/20 11:35:34;;;;;;;23.92;5.68;;;3.90;99.90;;;;;;5072596;28;20510;-53
2023/01/20 11:38:00;;;;;;;13.55;3.90;;;3.90;99.90;;;;;;5072786;28;20055;-51
2023/01/20 11:40:27;;;;;;;14.05;3.70;;;4.00;99.90;;;;;;5071441;28;20052;-51
2023/01/20 11:42:54;;;;;;;13.15;3.55;;;4.00;99.90;;;;;;5072799;28;20491;-54
2023/01/20 11:45:21;;;;;;;10.23;3.28;;;4.00;99.90;;;;;;5072399;28;20495;-54
2023/01/20 11:47:48;;;;;;;11.77;3.95;;;4.00;99.90;;;;;;5072203;28;20059;-53
2023/01/20 11:50:15;;;;;;;11.90;3.70;;;4.10;99.90;;;;;;5072705;28;20120;-50
2023/01/20 11:52:42;;;;;;;12.88;3.65;;;4.10;99.90;;;;;;5072382;28;20048;-52
2023/01/20 11:55:09;;;;;;;18.08;4.93;;;4.20;99.90;;;;;;5071112;28;20040;-48
2023/01/20 11:57:36;;;;;;;43.45;14.27;;;4.20;99.90;;;;;;5055707;28;20044;-54
2023/01/20 12:00:03;;;;;;;24.45;7.22;;;4.30;99.90;;;;;;5053167;28;20041;-52
2023/01/20 12:02:37;;;;;;;16.55;6.03;;;4.30;99.90;;;;;;5052964;28;20044;-52
2023/01/20 12:05:04;;;;;;;32.38;7.82;;;4.30;99.90;;;;;;5053271;28;20095;-53
2023/01/20 12:07:30;;;;;;;23.45;5.45;;;4.40;99.90;;;;;;5051859;28;20435;-54
2023/01/20 12:09:57;;;;;;;38.03;7.28;;;4.40;99.90;;;;;;5053172;28;20095;-51
2023/01/20 12:12:25;;;;;;;11.13;3.83;;;4.40;99.90;;;;;;5052950;28;20049;-53
2023/01/20 12:14:51;;;;;;;16.23;4.85;;;4.50;99.90;;;;;;5053028;28;20079;-54
2023/01/20 12:17:18;;;;;;;32.13;6.30;;;4.60;99.90;;;;;;5052905;28;20052;-55
2023/01/20 12:19:45;;;;;;;48.33;8.80;;;4.60;99.90;;;;;;5052771;28;20053;-51
2023/01/20 12:22:12;;;;;;;104.20;17.05;;;4.70;99.90;;;;;;5052647;28;20472;-52
2023/01/20 12:27:24;;;;;;;16.63;4.80;;;4.80;99.90;;;;;;5063114;28;20052;-49
2023/01/20 12:29:51;;;;;;;192.43;43.90;;;4.90;99.90;;;;;;5067547;28;20052;-51
2023/01/20 12:32:18;;;;;;;97.80;24.60;;;5.00;99.90;;;;;;5072121;28;20043;-52
2023/01/20 12:34:44;;;;;;;14.43;4.20;;;5.00;99.90;;;;;;5072252;28;20053;-51
2023/01/20 12:37:11;;;;;;;20.60;5.25;;;5.10;99.90;;;;;;5063619;28;20044;-52
2023/01/20 12:39:38;;;;;;;72.38;20.95;;;5.10;99.90;;;;;;5046266;28;20071;-52
2023/01/20 12:42:05;;;;;;;54.05;15.57;;;5.10;99.90;;;;;;5070753;28;20044;-53
2023/01/20 12:44:32;;;;;;;13.82;3.83;;;5.10;99.90;;;;;;5074304;28;20039;-51
2023/01/20 12:46:58;;;;;;;9.73;3.92;;;5.10;99.90;;;;;;5075491;28;20064;-51
2023/01/20 12:49:25;;;;;;;6.72;2.70;;;5.10;99.90;;;;;;5071099;28;20068;-51
2023/01/20 12:51:52;;;;;;;11.48;3.22;;;5.10;99.90;;;;;;5056333;28;20041;-52
2023/01/20 12:54:18;;;;;;;10.65;3.35;;;5.10;99.90;;;;;;5056651;28;20385;-51
2023/01/20 12:56:45;;;;;;;8.90;2.63;;;5.10;99.90;;;;;;5056223;28;20052;-48
2023/01/20 12:59:12;;;;;;;8.07;2.25;;;5.10;99.90;;;;;;5055737;28;20048;-54
2023/01/20 13:01:42;;;;;;;9.80;2.50;;;5.10;99.90;;;;;;5056513;28;20037;-55
2023/01/20 13:04:09;;;;;;;11.88;2.80;;;5.20;99.90;;;;;;5056098;28;20392;-54